sensor_id;sensor_type;location;lat;lon;timestamp;P1;P2;P0
71097;PMS7003;58754;47.622;-2.986;2023-04-03T00:00:23;1.00;1.00;0.75
71097;PMS7003;58754;47.622;-2.986;2023-04-03T00:02:49;0.75;0.75;0.50
71097;PMS7003;58754;47.622;-2.986;2023-04-03T00:05:14;1.75;1.75;1.00
71097;PMS7003;58754;47.622;-2.986;2023-04-03T00:07:40;1.00;0.50;0.50
71097;PMS7003;58754;47.622;-2.986;2023-04-03T00:10:06;2.00;1.00;1.00
71097;PMS7003;58754;47.622;-2.986;2023-04-03T00:12:32;1.00;1.00;1.00
71097;PMS7003;58754;47.622;-2.986;2023-04-03T00:14:58;1.00;1.00;1.00
71097;PMS7003;58754;47.622;-2.986;2023-04-03T00:17:24;0.75;0.75;0.75
71097;PMS7003;58754;47.622;-2.986;2023-04-03T00:19:50;0.75;0.75;0.75
71097;PMS7003;58754;47.622;-2.986;2023-04-03T00:22:16;1.00;1.00;0.00
71097;PMS7003;58754;47.622;-2.986;2023-04-03T00:24:41;1.00;1.00;0.50
71097;PMS7003;58754;47.622;-2.986;2023-04-03T00:27:07;1.00;1.00;1.00
71097;PMS7003;58754;47.622;-2.986;2023-04-03T00:29:33;0.25;0.25;0.00
71097;PMS7003;58754;47.622;-2.986;2023-04-03T00:31:58;1.00;1.00;1.00
71097;PMS7003;58754;47.622;-2.986;2023-04-03T00:34:24;1.00;0.50;0.50
71097;PMS7003;58754;47.622;-2.986;2023-04-03T00:36:50;2.00;1.00;1.00
71097;PMS7003;58754;47.622;-2.986;2023-04-03T00:39:16;1.00;1.00;1.00
71097;PMS7003;58754;47.622;-2.986;2023-04-03T00:41:42;1.25;1.00;0.75
71097;PMS7003;58754;47.622;-2.986;2023-04-03T00:45:21;1.50;1.50;1.25
71097;PMS7003;58754;47.622;-2.986;2023-04-03T00:47:06;1.00;1.00;0.75
71097;PMS7003;58754;47.622;-2.986;2023-04-03T00:49:34;2.00;1.00;1.00
71097;PMS7003;58754;47.622;-2.986;2023-04-03T00:52:01;2.00;1.00;1.00
71097;PMS7003;58754;47.622;-2.986;2023-04-03T00:54:28;1.75;1.25;1.00
71097;PMS7003;58754;47.622;-2.986;2023-04-03T00:56:54;1.50;1.50;0.75
71097;PMS7003;58754;47.622;-2.986;2023-04-03T00:59:26;0.75;0.75;0.75
71097;PMS7003;58754;47.622;-2.986;2023-04-03T01:01:56;1.75;0.75;0.75
71097;PMS7003;58754;47.622;-2.986;2023-04-03T01:06:53;1.25;1.25;1.00
71097;PMS7003;58754;47.622;-2.986;2023-04-03T01:09:22;1.00;1.00;0.75
71097;PMS7003;58754;47.622;-2.986;2023-04-03T01:11:48;0.75;0.75;0.75
71097;PMS7003;58754;47.622;-2.986;2023-04-03T01:14:14;1.75;1.75;1.00
71097;PMS7003;58754;47.622;-2.986;2023-04-03T01:16:40;2.25;1.25;1.25
71097;PMS7003;58754;47.622;-2.986;2023-04-03T01:19:11;1.75;1.75;0.75
71097;PMS7003;58754;47.622;-2.986;2023-04-03T01:21:49;1.50;1.50;0.75
71097;PMS7003;58754;47.622;-2.986;2023-04-03T01:24:42;2.00;0.75;0.75
71097;PMS7003;58754;47.622;-2.986;2023-04-03T01:27:08;4.25;1.00;1.00
71097;PMS7003;58754;47.622;-2.986;2023-04-03T01:29:35;1.00;1.00;1.00
71097;PMS7003;58754;47.622;-2.986;2023-04-03T01:32:02;1.00;1.00;0.75
71097;PMS7003;58754;47.622;-2.986;2023-04-03T01:34:29;1.50;1.00;0.75
71097;PMS7003;58754;47.622;-2.986;2023-04-03T01:36:55;0.50;0.50;0.50
71097;PMS7003;58754;47.622;-2.986;2023-04-03T01:39:21;1.00;1.00;0.75
71097;PMS7003;58754;47.622;-2.986;2023-04-03T01:41:47;0.50;0.50;0.50
71097;PMS7003;58754;47.622;-2.986;2023-04-03T01:44:14;1.00;1.00;1.00
71097;PMS7003;58754;47.622;-2.986;2023-04-03T01:46:39;0.75;0.75;0.75
71097;PMS7003;58754;47.622;-2.986;2023-04-03T01:49:07;0.50;0.50;0.50
71097;PMS7003;58754;47.622;-2.986;2023-04-03T01:51:33;1.00;1.00;1.00
71097;PMS7003;58754;47.622;-2.986;2023-04-03T01:53:59;1.25;1.25;0.50
71097;PMS7003;58754;47.622;-2.986;2023-04-03T01:56:25;1.75;1.75;1.25
71097;PMS7003;58754;47.622;-2.986;2023-04-03T01:58:51;0.50;0.50;0.50
71097;PMS7003;58754;47.622;-2.986;2023-04-03T02:01:17;1.75;1.75;1.00
71097;PMS7003;58754;47.622;-2.986;2023-04-03T02:03:43;3.00;2.00;2.00
71097;PMS7003;58754;47.622;-2.986;2023-04-03T02:06:09;1.00;1.00;1.00
71097;PMS7003;58754;47.622;-2.986;2023-04-03T02:08:34;2.00;1.50;1.50
71097;PMS7003;58754;47.622;-2.986;2023-04-03T02:11:00;0.75;0.75;0.75
71097;PMS7003;58754;47.622;-2.986;2023-04-03T02:13:26;0.00;0.00;0.00
71097;PMS7003;58754;47.622;-2.986;2023-04-03T02:15:52;2.50;1.75;0.75
71097;PMS7003;58754;47.622;-2.986;2023-04-03T02:18:17;2.00;1.75;1.00
71097;PMS7003;58754;47.622;-2.986;2023-04-03T02:20:43;0.75;0.75;0.75
71097;PMS7003;58754;47.622;-2.986;2023-04-03T02:23:09;2.50;1.25;0.75
71097;PMS7003;58754;47.622;-2.986;2023-04-03T02:25:35;0.75;0.75;0.75
71097;PMS7003;58754;47.622;-2.986;2023-04-03T02:28:01;0.75;0.75;0.75
71097;PMS7003;58754;47.622;-2.986;2023-04-03T02:30:26;1.00;1.00;0.75
71097;PMS7003;58754;47.622;-2.986;2023-04-03T02:35:38;2.00;2.00;1.00
71097;PMS7003;58754;47.622;-2.986;2023-04-03T02:38:04;3.00;1.50;0.75
71097;PMS7003;58754;47.622;-2.986;2023-04-03T02:40:30;1.50;1.50;1.50
71097;PMS7003;58754;47.622;-2.986;2023-04-03T02:42:55;1.25;1.25;1.00
71097;PMS7003;58754;47.622;-2.986;2023-04-03T02:45:21;2.25;2.25;2.00
71097;PMS7003;58754;47.622;-2.986;2023-04-03T02:47:47;1.25;1.25;1.00
71097;PMS7003;58754;47.622;-2.986;2023-04-03T02:50:12;1.75;1.50;1.50
71097;PMS7003;58754;47.622;-2.986;2023-04-03T02:52:38;2.00;2.00;2.00
71097;PMS7003;58754;47.622;-2.986;2023-04-03T02:55:04;1.50;1.50;1.50
71097;PMS7003;58754;47.622;-2.986;2023-04-03T02:57:30;1.50;1.50;1.50
71097;PMS7003;58754;47.622;-2.986;2023-04-03T02:59:55;2.00;1.25;1.25
71097;PMS7003;58754;47.622;-2.986;2023-04-03T03:02:21;1.00;1.00;1.00
71097;PMS7003;58754;47.622;-2.986;2023-04-03T03:04:47;2.75;1.75;1.00
71097;PMS7003;58754;47.622;-2.986;2023-04-03T03:07:12;1.25;1.00;1.00
71097;PMS7003;58754;47.622;-2.986;2023-04-03T03:09:38;1.50;1.50;1.25
71097;PMS7003;58754;47.622;-2.986;2023-04-03T03:12:04;1.00;1.00;1.00
71097;PMS7003;58754;47.622;-2.986;2023-04-03T03:14:30;0.50;0.50;0.50
71097;PMS7003;58754;47.622;-2.986;2023-04-03T03:16:56;0.50;0.25;0.25
71097;PMS7003;58754;47.622;-2.986;2023-04-03T03:19:21;1.75;1.75;0.75
71097;PMS7003;58754;47.622;-2.986;2023-04-03T03:21:47;0.75;0.75;0.75
71097;PMS7003;58754;47.622;-2.986;2023-04-03T03:24:13;1.00;1.00;1.00
71097;PMS7003;58754;47.622;-2.986;2023-04-03T03:26:38;0.75;0.75;0.75
71097;PMS7003;58754;47.622;-2.986;2023-04-03T03:29:04;0.75;0.75;0.75
71097;PMS7003;58754;47.622;-2.986;2023-04-03T03:31:30;2.00;2.00;1.25
71097;PMS7003;58754;47.622;-2.986;2023-04-03T03:33:55;0.50;0.50;0.50
71097;PMS7003;58754;47.622;-2.986;2023-04-03T03:36:21;1.25;1.25;1.25
71097;PMS7003;58754;47.622;-2.986;2023-04-03T03:38:47;1.75;1.50;1.25
71097;PMS7003;58754;47.622;-2.986;2023-04-03T03:41:13;2.00;2.00;1.75
71097;PMS7003;58754;47.622;-2.986;2023-04-03T03:43:38;2.75;2.75;2.25
71097;PMS7003;58754;47.622;-2.986;2023-04-03T03:46:04;1.00;1.00;1.00
71097;PMS7003;58754;47.622;-2.986;2023-04-03T03:48:30;1.50;1.00;1.00
71097;PMS7003;58754;47.622;-2.986;2023-04-03T03:50:55;1.00;1.00;1.00
71097;PMS7003;58754;47.622;-2.986;2023-04-03T03:53:21;1.00;1.00;1.00
71097;PMS7003;58754;47.622;-2.986;2023-04-03T03:55:47;3.00;2.00;1.75
71097;PMS7003;58754;47.622;-2.986;2023-04-03T03:58:12;1.75;1.75;1.00
71097;PMS7003;58754;47.622;-2.986;2023-04-03T04:00:38;1.00;1.00;1.00
71097;PMS7003;58754;47.622;-2.986;2023-04-03T04:03:04;1.00;1.00;1.00
71097;PMS7003;58754;47.622;-2.986;2023-04-03T04:05:30;3.00;2.00;1.25
71097;PMS7003;58754;47.622;-2.986;2023-04-03T04:07:56;2.50;1.00;1.00
71097;PMS7003;58754;47.622;-2.986;2023-04-03T04:10:21;2.00;1.00;1.00
71097;PMS7003;58754;47.622;-2.986;2023-04-03T04:12:47;1.25;1.25;1.00
71097;PMS7003;58754;47.622;-2.986;2023-04-03T04:15:14;0.50;0.50;0.25
71097;PMS7003;58754;47.622;-2.986;2023-04-03T04:17:39;3.00;1.00;1.00
71097;PMS7003;58754;47.622;-2.986;2023-04-03T04:20:05;0.50;0.50;0.50
71097;PMS7003;58754;47.622;-2.986;2023-04-03T04:22:31;1.00;1.00;1.00
71097;PMS7003;58754;47.622;-2.986;2023-04-03T04:24:57;2.00;1.75;1.75
71097;PMS7003;58754;47.622;-2.986;2023-04-03T04:27:23;0.50;0.50;0.50
71097;PMS7003;58754;47.622;-2.986;2023-04-03T04:29:48;1.50;1.50;1.50
71097;PMS7003;58754;47.622;-2.986;2023-04-03T04:32:14;3.00;2.00;2.00
71097;PMS7003;58754;47.622;-2.986;2023-04-03T04:34:40;1.75;1.75;1.50
71097;PMS7003;58754;47.622;-2.986;2023-04-03T04:37:05;2.00;2.00;2.00
71097;PMS7003;58754;47.622;-2.986;2023-04-03T04:39:31;1.50;1.50;1.50
71097;PMS7003;58754;47.622;-2.986;2023-04-03T04:41:56;1.25;1.00;1.00
71097;PMS7003;58754;47.622;-2.986;2023-04-03T04:44:22;3.75;1.50;1.25
71097;PMS7003;58754;47.622;-2.986;2023-04-03T04:46:48;2.50;1.50;1.50
71097;PMS7003;58754;47.622;-2.986;2023-04-03T04:49:13;1.25;1.25;1.25
71097;PMS7003;58754;47.622;-2.986;2023-04-03T04:51:39;1.50;0.50;0.50
71097;PMS7003;58754;47.622;-2.986;2023-04-03T04:54:05;2.00;2.00;2.00
71097;PMS7003;58754;47.622;-2.986;2023-04-03T04:56:31;1.25;0.75;0.50
71097;PMS7003;58754;47.622;-2.986;2023-04-03T04:58:56;2.00;1.50;1.50
71097;PMS7003;58754;47.622;-2.986;2023-04-03T05:01:22;3.25;1.75;1.50
71097;PMS7003;58754;47.622;-2.986;2023-04-03T05:03:48;0.75;0.75;0.50
71097;PMS7003;58754;47.622;-2.986;2023-04-03T05:06:13;0.75;0.75;0.75
71097;PMS7003;58754;47.622;-2.986;2023-04-03T05:08:39;3.00;2.00;1.75
71097;PMS7003;58754;47.622;-2.986;2023-04-03T05:11:05;2.75;2.00;1.25
71097;PMS7003;58754;47.622;-2.986;2023-04-03T05:13:30;2.75;2.00;2.00
71097;PMS7003;58754;47.622;-2.986;2023-04-03T05:15:56;1.75;1.75;1.50
71097;PMS7003;58754;47.622;-2.986;2023-04-03T05:18:22;2.00;2.00;2.00
71097;PMS7003;58754;47.622;-2.986;2023-04-03T05:20:48;2.00;2.00;1.50
71097;PMS7003;58754;47.622;-2.986;2023-04-03T05:23:15;1.75;1.50;1.50
71097;PMS7003;58754;47.622;-2.986;2023-04-03T05:25:41;2.50;2.50;2.00
71097;PMS7003;58754;47.622;-2.986;2023-04-03T05:28:08;2.75;1.50;1.00
71097;PMS7003;58754;47.622;-2.986;2023-04-03T05:30:35;4.00;3.00;2.00
71097;PMS7003;58754;47.622;-2.986;2023-04-03T05:33:00;2.00;2.00;1.25
71097;PMS7003;58754;47.622;-2.986;2023-04-03T05:35:26;2.00;0.75;0.50
71097;PMS7003;58754;47.622;-2.986;2023-04-03T05:37:52;2.75;1.75;1.75
71097;PMS7003;58754;47.622;-2.986;2023-04-03T05:40:18;2.00;2.00;1.50
71097;PMS7003;58754;47.622;-2.986;2023-04-03T05:42:44;1.25;1.25;1.00
71097;PMS7003;58754;47.622;-2.986;2023-04-03T05:45:09;2.00;2.00;1.50
71097;PMS7003;58754;47.622;-2.986;2023-04-03T05:47:36;2.00;2.00;2.00
71097;PMS7003;58754;47.622;-2.986;2023-04-03T05:50:02;1.50;1.50;1.50
71097;PMS7003;58754;47.622;-2.986;2023-04-03T05:52:29;2.50;1.50;1.00
71097;PMS7003;58754;47.622;-2.986;2023-04-03T05:54:57;2.50;1.50;1.50
71097;PMS7003;58754;47.622;-2.986;2023-04-03T05:57:23;1.75;1.75;1.75
71097;PMS7003;58754;47.622;-2.986;2023-04-03T05:59:48;2.25;2.00;1.00
71097;PMS7003;58754;47.622;-2.986;2023-04-03T06:02:18;1.75;1.75;1.75
71097;PMS7003;58754;47.622;-2.986;2023-04-03T06:04:46;0.75;0.75;0.50
71097;PMS7003;58754;47.622;-2.986;2023-04-03T06:07:19;2.00;2.00;1.50
71097;PMS7003;58754;47.622;-2.986;2023-04-03T06:09:47;0.50;0.50;0.50
71097;PMS7003;58754;47.622;-2.986;2023-04-03T06:12:14;1.50;1.00;0.75
71097;PMS7003;58754;47.622;-2.986;2023-04-03T06:14:40;3.00;0.00;0.00
71097;PMS7003;58754;47.622;-2.986;2023-04-03T06:17:06;4.75;1.75;1.25
71097;PMS7003;58754;47.622;-2.986;2023-04-03T06:19:33;1.75;1.25;1.00
71097;PMS7003;58754;47.622;-2.986;2023-04-03T06:21:59;1.25;1.00;1.00
71097;PMS7003;58754;47.622;-2.986;2023-04-03T06:24:25;3.25;2.00;1.00
71097;PMS7003;58754;47.622;-2.986;2023-04-03T06:26:51;1.00;1.00;0.75
71097;PMS7003;58754;47.622;-2.986;2023-04-03T06:29:21;1.00;1.00;1.00
71097;PMS7003;58754;47.622;-2.986;2023-04-03T06:31:47;3.00;1.75;1.75
71097;PMS7003;58754;47.622;-2.986;2023-04-03T06:34:13;1.75;1.75;1.75
71097;PMS7003;58754;47.622;-2.986;2023-04-03T06:36:40;1.75;1.75;1.00
71097;PMS7003;58754;47.622;-2.986;2023-04-03T06:39:08;2.00;2.00;1.75
71097;PMS7003;58754;47.622;-2.986;2023-04-03T06:41:38;1.00;1.00;0.75
71097;PMS7003;58754;47.622;-2.986;2023-04-03T06:44:03;1.25;1.25;1.00
71097;PMS7003;58754;47.622;-2.986;2023-04-03T06:46:29;1.00;1.00;0.75
71097;PMS7003;58754;47.622;-2.986;2023-04-03T06:48:55;3.25;2.00;1.00
71097;PMS7003;58754;47.622;-2.986;2023-04-03T06:51:22;4.00;1.50;1.00
71097;PMS7003;58754;47.622;-2.986;2023-04-03T06:53:50;1.00;1.00;1.00
71097;PMS7003;58754;47.622;-2.986;2023-04-03T06:56:17;2.00;2.00;1.75
71097;PMS7003;58754;47.622;-2.986;2023-04-03T06:58:43;1.50;1.00;0.75
71097;PMS7003;58754;47.622;-2.986;2023-04-03T07:01:10;3.25;2.00;2.00
71097;PMS7003;58754;47.622;-2.986;2023-04-03T07:03:38;2.00;2.00;2.00
71097;PMS7003;58754;47.622;-2.986;2023-04-03T07:06:05;1.50;1.50;1.00
71097;PMS7003;58754;47.622;-2.986;2023-04-03T07:08:32;1.00;1.00;1.00
71097;PMS7003;58754;47.622;-2.986;2023-04-03T07:10:59;3.50;2.00;2.00
71097;PMS7003;58754;47.622;-2.986;2023-04-03T07:13:24;2.00;2.00;1.75
71097;PMS7003;58754;47.622;-2.986;2023-04-03T07:15:51;1.50;1.25;1.25
71097;PMS7003;58754;47.622;-2.986;2023-04-03T07:18:17;2.50;1.50;1.50
71097;PMS7003;58754;47.622;-2.986;2023-04-03T07:20:44;3.00;1.50;0.75
71097;PMS7003;58754;47.622;-2.986;2023-04-03T07:23:09;4.00;1.00;1.00
71097;PMS7003;58754;47.622;-2.986;2023-04-03T07:25:35;1.50;1.50;1.25
71097;PMS7003;58754;47.622;-2.986;2023-04-03T07:28:02;1.50;1.00;1.00
71097;PMS7003;58754;47.622;-2.986;2023-04-03T07:30:28;1.25;0.75;0.75
71097;PMS7003;58754;47.622;-2.986;2023-04-03T07:32:54;2.75;1.25;1.00
71097;PMS7003;58754;47.622;-2.986;2023-04-03T07:35:20;2.75;2.00;1.75
71097;PMS7003;58754;47.622;-2.986;2023-04-03T07:37:46;4.00;2.00;2.00
71097;PMS7003;58754;47.622;-2.986;2023-04-03T07:40:11;1.00;0.50;0.50
71097;PMS7003;58754;47.622;-2.986;2023-04-03T07:42:37;1.00;1.00;1.00
71097;PMS7003;58754;47.622;-2.986;2023-04-03T07:45:03;2.00;2.00;1.50
71097;PMS7003;58754;47.622;-2.986;2023-04-03T07:47:29;2.25;1.00;1.00
71097;PMS7003;58754;47.622;-2.986;2023-04-03T07:49:56;2.25;1.00;1.00
71097;PMS7003;58754;47.622;-2.986;2023-04-03T07:52:23;1.00;1.00;1.00
71097;PMS7003;58754;47.622;-2.986;2023-04-03T07:54:50;0.75;0.75;0.75
71097;PMS7003;58754;47.622;-2.986;2023-04-03T07:57:16;2.25;2.25;2.00
71097;PMS7003;58754;47.622;-2.986;2023-04-03T07:59:41;6.00;1.00;0.75
71097;PMS7003;58754;47.622;-2.986;2023-04-03T08:02:11;5.00;2.00;1.25
71097;PMS7003;58754;47.622;-2.986;2023-04-03T08:04:37;1.00;0.00;0.00
71097;PMS7003;58754;47.622;-2.986;2023-04-03T08:07:03;0.50;0.50;0.50
71097;PMS7003;58754;47.622;-2.986;2023-04-03T08:09:29;2.50;2.50;1.50
71097;PMS7003;58754;47.622;-2.986;2023-04-03T08:11:56;1.50;0.00;0.00
71097;PMS7003;58754;47.622;-2.986;2023-04-03T08:14:23;1.50;1.50;1.00
71097;PMS7003;58754;47.622;-2.986;2023-04-03T08:16:48;1.75;1.25;1.00
71097;PMS7003;58754;47.622;-2.986;2023-04-03T08:19:15;2.00;2.00;1.25
71097;PMS7003;58754;47.622;-2.986;2023-04-03T08:21:43;1.50;0.50;0.50
71097;PMS7003;58754;47.622;-2.986;2023-04-03T08:24:10;1.50;1.50;1.25
71097;PMS7003;58754;47.622;-2.986;2023-04-03T08:26:36;2.50;1.25;1.00
71097;PMS7003;58754;47.622;-2.986;2023-04-03T08:29:02;2.00;2.00;2.00
71097;PMS7003;58754;47.622;-2.986;2023-04-03T08:31:28;2.00;2.00;1.25
71097;PMS7003;58754;47.622;-2.986;2023-04-03T08:33:56;3.00;1.75;1.75
71097;PMS7003;58754;47.622;-2.986;2023-04-03T08:36:23;0.50;0.50;0.50
71097;PMS7003;58754;47.622;-2.986;2023-04-03T08:38:54;0.75;0.75;0.75
71097;PMS7003;58754;47.622;-2.986;2023-04-03T08:55:05;2.00;1.50;1.50
71097;PMS7003;58754;47.622;-2.986;2023-04-03T08:57:39;4.00;1.75;1.75
71097;PMS7003;58754;47.622;-2.986;2023-04-03T09:00:20;3.75;2.00;1.75
71097;PMS7003;58754;47.622;-2.986;2023-04-03T09:02:49;2.50;1.00;1.00
71097;PMS7003;58754;47.622;-2.986;2023-04-03T09:07:53;1.25;1.25;1.00
71097;PMS7003;58754;47.622;-2.986;2023-04-03T09:10:27;2.00;2.00;2.00
71097;PMS7003;58754;47.622;-2.986;2023-04-03T09:13:39;1.00;1.00;1.00
71097;PMS7003;58754;47.622;-2.986;2023-04-03T09:15:49;1.50;1.50;1.50
71097;PMS7003;58754;47.622;-2.986;2023-04-03T09:21:17;3.00;2.00;1.50
71097;PMS7003;58754;47.622;-2.986;2023-04-03T09:23:53;5.00;3.25;2.25
71097;PMS7003;58754;47.622;-2.986;2023-04-03T09:26:24;1.75;1.75;1.50
71097;PMS7003;58754;47.622;-2.986;2023-04-03T09:28:55;1.50;1.50;1.50
71097;PMS7003;58754;47.622;-2.986;2023-04-03T09:31:38;3.75;1.75;1.50
71097;PMS7003;58754;47.622;-2.986;2023-04-03T09:34:30;2.00;2.00;2.00
71097;PMS7003;58754;47.622;-2.986;2023-04-03T09:36:57;3.00;2.00;1.25
71097;PMS7003;58754;47.622;-2.986;2023-04-03T09:39:30;2.00;1.00;1.00
71097;PMS7003;58754;47.622;-2.986;2023-04-03T09:42:04;4.00;2.75;2.50
71097;PMS7003;58754;47.622;-2.986;2023-04-03T09:44:44;3.00;1.75;1.75
71097;PMS7003;58754;47.622;-2.986;2023-04-03T09:52:43;3.00;3.00;2.00
71097;PMS7003;58754;47.622;-2.986;2023-04-03T09:55:15;3.00;3.00;2.25
71097;PMS7003;58754;47.622;-2.986;2023-04-03T09:57:41;2.00;2.00;2.00
71097;PMS7003;58754;47.622;-2.986;2023-04-03T10:00:19;1.50;1.50;1.50
71097;PMS7003;58754;47.622;-2.986;2023-04-03T10:02:54;3.00;3.00;2.50
71097;PMS7003;58754;47.622;-2.986;2023-04-03T10:05:39;1.00;1.00;1.00
71097;PMS7003;58754;47.622;-2.986;2023-04-03T10:10:39;1.25;1.25;1.25
71097;PMS7003;58754;47.622;-2.986;2023-04-03T10:15:41;3.00;2.00;2.00
71097;PMS7003;58754;47.622;-2.986;2023-04-03T10:21:13;2.75;2.00;2.00
71097;PMS7003;58754;47.622;-2.986;2023-04-03T10:26:50;4.25;2.50;2.50
71097;PMS7003;58754;47.622;-2.986;2023-04-03T10:34:49;3.75;3.00;3.00
71097;PMS7003;58754;47.622;-2.986;2023-04-03T10:40:01;3.50;2.75;2.25
71097;PMS7003;58754;47.622;-2.986;2023-04-03T10:42:46;3.25;2.50;2.00
71097;PMS7003;58754;47.622;-2.986;2023-04-03T10:55:50;2.00;2.00;2.00
71097;PMS7003;58754;47.622;-2.986;2023-04-03T10:58:41;5.00;3.50;3.00
71097;PMS7003;58754;47.622;-2.986;2023-04-03T11:01:14;2.75;2.75;2.50
71097;PMS7003;58754;47.622;-2.986;2023-04-03T11:03:45;4.00;2.25;2.00
71097;PMS7003;58754;47.622;-2.986;2023-04-03T11:06:15;2.75;2.50;2.25
71097;PMS7003;58754;47.622;-2.986;2023-04-03T11:11:17;4.50;4.00;3.25
71097;PMS7003;58754;47.622;-2.986;2023-04-03T11:16:35;4.50;4.00;3.25
71097;PMS7003;58754;47.622;-2.986;2023-04-03T11:19:41;3.00;3.00;3.00
71097;PMS7003;58754;47.622;-2.986;2023-04-03T11:22:09;4.00;2.75;2.00
71097;PMS7003;58754;47.622;-2.986;2023-04-03T11:24:50;2.50;2.50;2.50
71097;PMS7003;58754;47.622;-2.986;2023-04-03T11:27:44;3.75;3.75;2.75
71097;PMS7003;58754;47.622;-2.986;2023-04-03T11:35:21;6.75;4.00;3.75
71097;PMS7003;58754;47.622;-2.986;2023-04-03T11:37:50;2.75;2.75;2.75
71097;PMS7003;58754;47.622;-2.986;2023-04-03T11:45:29;2.00;2.00;2.00
71097;PMS7003;58754;47.622;-2.986;2023-04-03T11:50:31;3.50;3.00;3.00
71097;PMS7003;58754;47.622;-2.986;2023-04-03T11:53:01;2.75;2.50;2.00
71097;PMS7003;58754;47.622;-2.986;2023-04-03T12:00:52;3.50;2.00;1.75
71097;PMS7003;58754;47.622;-2.986;2023-04-03T12:03:33;3.25;3.25;3.00
71097;PMS7003;58754;47.622;-2.986;2023-04-03T12:08:53;3.00;3.00;2.75
71097;PMS7003;58754;47.622;-2.986;2023-04-03T12:11:32;3.25;3.00;2.50
71097;PMS7003;58754;47.622;-2.986;2023-04-03T12:14:12;4.00;4.00;3.00
71097;PMS7003;58754;47.622;-2.986;2023-04-03T12:26:47;3.00;3.00;2.00
71097;PMS7003;58754;47.622;-2.986;2023-04-03T12:34:50;3.00;3.00;2.50
71097;PMS7003;58754;47.622;-2.986;2023-04-03T12:37:34;3.00;3.00;3.00
71097;PMS7003;58754;47.622;-2.986;2023-04-03T12:46:03;4.25;4.25;3.25
71097;PMS7003;58754;47.622;-2.986;2023-04-03T12:48:38;4.00;4.00;3.25
71097;PMS7003;58754;47.622;-2.986;2023-04-03T12:51:14;3.50;3.50;3.00
71097;PMS7003;58754;47.622;-2.986;2023-04-03T12:53:45;3.00;3.00;3.00
71097;PMS7003;58754;47.622;-2.986;2023-04-03T12:56:21;2.50;2.50;2.50
71097;PMS7003;58754;47.622;-2.986;2023-04-03T12:58:50;4.50;4.00;4.00
71097;PMS7003;58754;47.622;-2.986;2023-04-03T13:01:18;5.25;3.50;2.50
71097;PMS7003;58754;47.622;-2.986;2023-04-03T13:03:49;4.00;3.50;3.00
71097;PMS7003;58754;47.622;-2.986;2023-04-03T13:06:21;3.50;3.50;3.50
71097;PMS7003;58754;47.622;-2.986;2023-04-03T13:08:55;3.00;3.00;2.75
71097;PMS7003;58754;47.622;-2.986;2023-04-03T13:11:23;6.00;3.75;3.00
71097;PMS7003;58754;47.622;-2.986;2023-04-03T13:13:55;4.25;2.25;2.00
71097;PMS7003;58754;47.622;-2.986;2023-04-03T13:16:24;5.50;3.75;3.00
71097;PMS7003;58754;47.622;-2.986;2023-04-03T13:18:51;3.00;3.00;3.00
71097;PMS7003;58754;47.622;-2.986;2023-04-03T13:21:23;3.00;3.00;2.25
71097;PMS7003;58754;47.622;-2.986;2023-04-03T13:23:59;5.00;5.00;4.00
71097;PMS7003;58754;47.622;-2.986;2023-04-03T13:26:29;4.00;4.00;3.00
71097;PMS7003;58754;47.622;-2.986;2023-04-03T13:28:59;3.75;3.00;2.50
71097;PMS7003;58754;47.622;-2.986;2023-04-03T13:31:39;4.50;4.25;3.75
71097;PMS7003;58754;47.622;-2.986;2023-04-03T13:34:06;1.00;1.00;1.00
71097;PMS7003;58754;47.622;-2.986;2023-04-03T13:36:37;5.00;4.25;4.00
71097;PMS7003;58754;47.622;-2.986;2023-04-03T13:41:37;5.25;3.50;3.00
71097;PMS7003;58754;47.622;-2.986;2023-04-03T13:46:52;5.00;5.00;3.00
71097;PMS7003;58754;47.622;-2.986;2023-04-03T13:49:34;3.00;3.00;2.00
71097;PMS7003;58754;47.622;-2.986;2023-04-03T13:52:24;3.50;3.50;3.00
71097;PMS7003;58754;47.622;-2.986;2023-04-03T13:55:11;4.00;4.00;3.25
71097;PMS7003;58754;47.622;-2.986;2023-04-03T13:58:20;4.50;4.50;3.50
71097;PMS7003;58754;47.622;-2.986;2023-04-03T14:00:47;4.25;4.25;4.00
71097;PMS7003;58754;47.622;-2.986;2023-04-03T14:03:30;3.00;3.00;3.00
71097;PMS7003;58754;47.622;-2.986;2023-04-03T14:06:05;4.00;4.00;3.25
71097;PMS7003;58754;47.622;-2.986;2023-04-03T14:08:32;4.00;4.00;4.00
71097;PMS7003;58754;47.622;-2.986;2023-04-03T14:10:58;3.00;3.00;3.00
71097;PMS7003;58754;47.622;-2.986;2023-04-03T14:13:23;5.50;4.00;3.00
71097;PMS7003;58754;47.622;-2.986;2023-04-03T14:15:49;4.50;3.00;2.50
71097;PMS7003;58754;47.622;-2.986;2023-04-03T14:18:17;4.25;4.25;4.00
71097;PMS7003;58754;47.622;-2.986;2023-04-03T14:20:45;5.00;5.00;3.50
71097;PMS7003;58754;47.622;-2.986;2023-04-03T14:23:10;3.75;3.75;3.25
71097;PMS7003;58754;47.622;-2.986;2023-04-03T14:25:37;4.75;4.00;3.25
71097;PMS7003;58754;47.622;-2.986;2023-04-03T14:28:14;3.75;3.75;3.50
71097;PMS7003;58754;47.622;-2.986;2023-04-03T14:30:43;4.00;3.50;3.00
71097;PMS7003;58754;47.622;-2.986;2023-04-03T14:33:14;4.25;3.75;3.00
71097;PMS7003;58754;47.622;-2.986;2023-04-03T14:35:42;4.75;4.00;3.00
71097;PMS7003;58754;47.622;-2.986;2023-04-03T14:38:20;4.75;4.75;4.25
71097;PMS7003;58754;47.622;-2.986;2023-04-03T14:40:49;2.75;2.75;2.75
71097;PMS7003;58754;47.622;-2.986;2023-04-03T14:43:15;5.75;3.75;3.00
71097;PMS7003;58754;47.622;-2.986;2023-04-03T14:45:41;5.00;3.00;2.75
71097;PMS7003;58754;47.622;-2.986;2023-04-03T14:48:09;4.25;4.25;3.75
71097;PMS7003;58754;47.622;-2.986;2023-04-03T14:50:43;3.25;3.25;3.00
71097;PMS7003;58754;47.622;-2.986;2023-04-03T14:53:10;5.00;4.50;4.00
71097;PMS7003;58754;47.622;-2.986;2023-04-03T14:55:40;6.25;4.00;3.50
71097;PMS7003;58754;47.622;-2.986;2023-04-03T14:58:09;4.75;4.00;4.00
71097;PMS7003;58754;47.622;-2.986;2023-04-03T15:00:39;5.00;4.00;3.00
71097;PMS7003;58754;47.622;-2.986;2023-04-03T15:03:04;6.00;5.00;4.00
71097;PMS7003;58754;47.622;-2.986;2023-04-03T15:05:30;4.00;4.00;3.50
71097;PMS7003;58754;47.622;-2.986;2023-04-03T15:07:57;5.50;4.00;4.00
71097;PMS7003;58754;47.622;-2.986;2023-04-03T15:10:26;4.50;4.50;4.00
71097;PMS7003;58754;47.622;-2.986;2023-04-03T15:12:53;4.25;3.50;3.50
71097;PMS7003;58754;47.622;-2.986;2023-04-03T15:15:20;7.00;5.00;4.25
71097;PMS7003;58754;47.622;-2.986;2023-04-03T15:17:50;5.25;5.25;5.00
71097;PMS7003;58754;47.622;-2.986;2023-04-03T15:20:24;7.50;4.50;4.00
71097;PMS7003;58754;47.622;-2.986;2023-04-03T15:22:51;5.50;5.50;4.75
71097;PMS7003;58754;47.622;-2.986;2023-04-03T15:25:17;7.00;5.50;4.75
71097;PMS7003;58754;47.622;-2.986;2023-04-03T15:27:43;5.00;3.50;3.50
71097;PMS7003;58754;47.622;-2.986;2023-04-03T15:30:18;5.00;5.00;4.00
71097;PMS7003;58754;47.622;-2.986;2023-04-03T15:32:44;5.50;4.50;3.75
71097;PMS7003;58754;47.622;-2.986;2023-04-03T15:35:11;4.75;4.25;3.50
71097;PMS7003;58754;47.622;-2.986;2023-04-03T15:37:36;5.00;4.50;4.25
71097;PMS7003;58754;47.622;-2.986;2023-04-03T15:40:03;6.00;5.00;4.00
71097;PMS7003;58754;47.622;-2.986;2023-04-03T15:42:30;5.00;5.00;4.25
71097;PMS7003;58754;47.622;-2.986;2023-04-03T15:44:56;3.25;3.25;3.00
71097;PMS7003;58754;47.622;-2.986;2023-04-03T15:47:21;6.00;6.00;5.00
71097;PMS7003;58754;47.622;-2.986;2023-04-03T15:49:47;7.00;5.00;5.00
71097;PMS7003;58754;47.622;-2.986;2023-04-03T15:52:13;4.00;4.00;3.75
71097;PMS7003;58754;47.622;-2.986;2023-04-03T15:54:38;5.00;5.00;4.50
71097;PMS7003;58754;47.622;-2.986;2023-04-03T15:57:04;4.50;4.50;4.00
71097;PMS7003;58754;47.622;-2.986;2023-04-03T15:59:30;5.50;4.50;3.75
71097;PMS7003;58754;47.622;-2.986;2023-04-03T16:01:57;4.75;4.75;4.50
71097;PMS7003;58754;47.622;-2.986;2023-04-03T16:04:25;4.50;4.00;3.50
71097;PMS7003;58754;47.622;-2.986;2023-04-03T16:06:51;5.75;5.75;5.00
71097;PMS7003;58754;47.622;-2.986;2023-04-03T16:09:17;6.50;5.50;5.00